Time;durP1;ratioP1;P1;durP2;ratioP2;P2;SDS_P1;SDS_P2;PMS_P1;PMS_P2;Temp;Humidity;BMP_temperature;BMP_pressure;BME280_temperature;BME280_humidity;BME280_pressure;Samples;Min_cycle;Max_cycle;Signal;HPM_P1;HPM_P2
2022/11/08 00:01:45;;;;;;;35.97;5.38;;;;;;;;;;5010898;28;20084;-61
2022/11/08 00:04:14;;;;;;;38.50;5.60;;;;;;;;;;4994453;28;20036;-61
2022/11/08 00:14:57;;;;;;;37.45;5.05;;;;;;;;;;5013118;28;20072;-59
2022/11/08 00:17:25;;;;;;;59.28;6.47;;;;;;;;;;5013027;28;20052;-60
2022/11/08 00:19:52;;;;;;;57.38;6.68;;;;;;;;;;5012769;28;20038;-62
2022/11/08 00:22:20;;;;;;;57.05;6.50;;;;;;;;;;5011981;28;20087;-61
2022/11/08 00:24:47;;;;;;;61.17;6.97;;;;;;;;;;5012123;28;20113;-61
2022/11/08 00:27:17;;;;;;;64.78;8.80;;;;;;;;;;5012022;28;20039;-61
2022/11/08 00:29:44;;;;;;;95.50;10.98;;;;;;;;;;5008588;28;20037;-62
2022/11/08 00:32:12;;;;;;;60.70;7.65;;;;;;;;;;5011628;28;20121;-61
2022/11/08 00:34:39;;;;;;;74.40;8.75;;;;;;;;;;5010399;28;20121;-61
2022/11/08 00:37:06;;;;;;;57.45;7.65;;;;;;;;;;5011984;28;20032;-62
2022/11/08 00:39:33;;;;;;;49.50;6.80;;;;;;;;;;5011698;28;20088;-61
2022/11/08 00:42:00;;;;;;;44.35;7.95;;;;;;;;;;5012246;28;20025;-61
2022/11/08 00:44:27;;;;;;;56.17;10.50;;;;;;;;;;5012448;28;20132;-61
2022/11/08 00:46:54;;;;;;;50.55;11.82;;;;;;;;;;5012474;28;20032;-61
2022/11/08 00:49:22;;;;;;;52.58;11.73;;;;;;;;;;5012279;28;20491;-61
2022/11/08 00:51:49;;;;;;;54.30;12.38;;;;;;;;;;5012374;28;20045;-61
2022/11/08 00:54:18;;;;;;;45.40;12.00;;;;;;;;;;5010358;28;20038;-61
2022/11/08 00:56:45;;;;;;;50.08;12.23;;;;;;;;;;5010903;28;20033;-62
2022/11/08 00:59:12;;;;;;;54.75;11.80;;;;;;;;;;4992399;28;20037;-61
2022/11/08 01:01:40;;;;;;;63.78;12.13;;;;;;;;;;5009572;28;20471;-61
2022/11/08 01:04:07;;;;;;;53.70;13.05;;;;;;;;;;5010621;28;20029;-61
2022/11/08 01:06:35;;;;;;;56.38;12.25;;;;;;;;;;5012339;28;20084;-61
2022/11/08 01:09:02;;;;;;;59.90;11.50;;;;;;;;;;5011896;28;20026;-61
2022/11/08 01:11:29;;;;;;;62.35;12.35;;;;;;;;;;5012259;28;20034;-61
2022/11/08 01:13:57;;;;;;;54.65;12.02;;;;;;;;;;5012297;28;20049;-60
2022/11/08 01:16:25;;;;;;;63.38;12.48;;;;;;;;;;5012276;28;20033;-61
2022/11/08 01:18:54;;;;;;;49.60;12.20;;;;;;;;;;5011409;28;20046;-61
2022/11/08 01:21:21;;;;;;;56.03;11.90;;;;;;;;;;5012204;28;20037;-61
2022/11/08 01:23:48;;;;;;;53.00;11.30;;;;;;;;;;5011099;28;20044;-62
2022/11/08 01:26:19;;;;;;;50.10;11.00;;;;;;;;;;5009774;28;20052;-60
2022/11/08 01:28:46;;;;;;;45.15;10.13;;;;;;;;;;4992061;28;20034;-57
2022/11/08 01:31:15;;;;;;;43.22;9.68;;;;;;;;;;5010182;28;20472;-56
2022/11/08 01:33:42;;;;;;;46.97;9.93;;;;;;;;;;5011741;28;20109;-56
2022/11/08 01:36:10;;;;;;;48.33;9.77;;;;;;;;;;5011024;28;20109;-57
2022/11/08 01:38:37;;;;;;;48.65;9.65;;;;;;;;;;5009475;28;20077;-56
2022/11/08 01:41:04;;;;;;;43.40;9.23;;;;;;;;;;5009872;28;20109;-52
2022/11/08 01:43:31;;;;;;;43.28;8.48;;;;;;;;;;5008674;28;20026;-54
2022/11/08 01:46:10;;;;;;;37.58;8.13;;;;;;;;;;5010357;28;20026;-55
2022/11/08 01:48:43;;;;;;;34.75;7.82;;;;;;;;;;5011015;28;20038;-54
2022/11/08 01:51:12;;;;;;;35.17;7.97;;;;;;;;;;5010822;28;20038;-54
2022/11/08 01:53:39;;;;;;;33.40;7.50;;;;;;;;;;5010516;28;20063;-53
2022/11/08 01:56:06;;;;;;;32.85;7.85;;;;;;;;;;5011709;28;20036;-50
2022/11/08 01:58:36;;;;;;;33.67;7.28;;;;;;;;;;5011464;28;20488;-54
2022/11/08 02:01:03;;;;;;;32.58;7.70;;;;;;;;;;5010966;28;20050;-54
2022/11/08 02:03:32;;;;;;;31.15;7.15;;;;;;;;;;5008935;28;20030;-55
2022/11/08 02:06:00;;;;;;;26.02;6.90;;;;;;;;;;5009473;28;20141;-57
2022/11/08 02:08:33;;;;;;;32.67;7.05;;;;;;;;;;5009391;28;20040;-54
2022/11/08 02:11:00;;;;;;;26.30;5.95;;;;;;;;;;5009441;28;20484;-57
2022/11/08 02:13:29;;;;;;;27.35;6.20;;;;;;;;;;5009481;28;20036;-52
2022/11/08 02:15:56;;;;;;;25.15;6.18;;;;;;;;;;5009647;28;20060;-54
2022/11/08 02:18:25;;;;;;;26.05;5.82;;;;;;;;;;5009604;28;20069;-57
2022/11/08 02:20:52;;;;;;;25.83;5.75;;;;;;;;;;4992468;28;20026;-52
2022/11/08 02:23:24;;;;;;;30.83;5.53;;;;;;;;;;5010004;28;20026;-51
2022/11/08 02:25:51;;;;;;;25.67;5.38;;;;;;;;;;5010324;28;20033;-54
2022/11/08 02:28:18;;;;;;;20.25;5.25;;;;;;;;;;5009975;28;20054;-51
2022/11/08 02:30:45;;;;;;;19.65;5.13;;;;;;;;;;5013892;28;20033;-58
2022/11/08 02:33:22;;;;;;;21.85;5.25;;;;;;;;;;5015082;28;20057;-53
2022/11/08 02:35:50;;;;;;;19.95;4.47;;;;;;;;;;5015131;28;20061;-53
2022/11/08 02:38:17;;;;;;;21.90;4.55;;;;;;;;;;5014964;28;20488;-55
2022/11/08 02:40:45;;;;;;;17.20;4.50;;;;;;;;;;5014946;28;20407;-55
2022/11/08 02:43:12;;;;;;;24.20;4.97;;;;;;;;;;5015111;28;20038;-52
2022/11/08 02:45:39;;;;;;;18.00;4.38;;;;;;;;;;5014992;28;20037;-52
2022/11/08 02:48:06;;;;;;;21.40;4.20;;;;;;;;;;5014881;28;20028;-55
2022/11/08 02:50:33;;;;;;;18.42;3.97;;;;;;;;;;5014892;28;20495;-55
2022/11/08 02:53:00;;;;;;;13.90;3.90;;;;;;;;;;5014657;28;20025;-56
2022/11/08 02:55:28;;;;;;;15.02;4.28;;;;;;;;;;5014826;28;20117;-51
2022/11/08 02:57:55;;;;;;;15.57;4.00;;;;;;;;;;5014599;28;20030;-57
2022/11/08 03:00:22;;;;;;;20.40;4.00;;;;;;;;;;5014565;28;20033;-52
2022/11/08 03:02:53;;;;;;;13.50;3.53;;;;;;;;;;5014878;28;20034;-51
2022/11/08 03:05:20;;;;;;;19.85;3.72;;;;;;;;;;4996715;28;20034;-50
2022/11/08 03:07:47;;;;;;;16.05;3.75;;;;;;;;;;5014595;28;20034;-52
2022/11/08 03:10:14;;;;;;;16.52;3.17;;;;;;;;;;5014347;28;20034;-54
2022/11/08 03:12:42;;;;;;;14.70;3.30;;;;;;;;;;5014580;28;20050;-52
2022/11/08 03:15:10;;;;;;;12.32;3.38;;;;;;;;;;5014381;28;20068;-52
2022/11/08 03:17:37;;;;;;;20.65;3.40;;;;;;;;;;5014226;28;20037;-54
2022/11/08 03:20:04;;;;;;;15.68;3.78;;;;;;;;;;5014286;28;20504;-56
2022/11/08 03:22:31;;;;;;;14.00;3.35;;;;;;;;;;5013311;28;20144;-56
2022/11/08 03:24:58;;;;;;;15.63;3.35;;;;;;;;;;5014332;28;20034;-53
2022/11/08 03:27:25;;;;;;;14.35;3.50;;;;;;;;;;5014147;28;20123;-54
2022/11/08 03:29:52;;;;;;;16.75;2.60;;;;;;;;;;5014157;28;20095;-57
2022/11/08 03:32:19;;;;;;;13.30;3.33;;;;;;;;;;5013976;28;20037;-50
2022/11/08 03:34:46;;;;;;;12.73;2.88;;;;;;;;;;5014213;28;20025;-53
2022/11/08 03:37:13;;;;;;;13.55;2.72;;;;;;;;;;5013992;28;20393;-51
2022/11/08 03:39:40;;;;;;;14.32;3.05;;;;;;;;;;5013615;28;20053;-52
2022/11/08 03:42:07;;;;;;;10.45;2.60;;;;;;;;;;5013850;28;20044;-53
2022/11/08 03:44:34;;;;;;;10.13;2.58;;;;;;;;;;5013972;28;20040;-50
2022/11/08 03:47:01;;;;;;;14.05;2.72;;;;;;;;;;5013966;28;20424;-52
2022/11/08 03:49:28;;;;;;;11.60;2.28;;;;;;;;;;5013846;28;20452;-51
2022/11/08 03:51:55;;;;;;;11.63;2.40;;;;;;;;;;5013759;28;20033;-53
2022/11/08 03:54:22;;;;;;;10.50;2.33;;;;;;;;;;5013808;28;20029;-51
2022/11/08 03:56:49;;;;;;;11.95;2.63;;;;;;;;;;5013627;28;20030;-53
2022/11/08 03:59:16;;;;;;;7.82;2.22;;;;;;;;;;5013619;28;20041;-52
2022/11/08 04:01:43;;;;;;;11.68;2.60;;;;;;;;;;5013508;28;20038;-53
2022/11/08 04:04:10;;;;;;;7.90;2.25;;;;;;;;;;5000090;28;20026;-56
2022/11/08 04:06:37;;;;;;;10.15;2.40;;;;;;;;;;5013489;28;20026;-55
2022/11/08 04:09:04;;;;;;;11.90;2.40;;;;;;;;;;5013439;28;20040;-51
2022/11/08 04:17:01;;;;;;;10.68;2.28;;;;;;;;;;5013474;28;20095;-51
2022/11/08 04:22:13;;;;;;;12.27;1.90;;;;;;;;;;5013081;28;20562;-53
2022/11/08 04:24:40;;;;;;;11.45;1.88;;;;;;;;;;5013267;28;20025;-51
2022/11/08 04:27:07;;;;;;;8.85;1.80;;;;;;;;;;4995747;28;20037;-54
2022/11/08 04:29:34;;;;;;;10.45;2.00;;;;;;;;;;5013165;28;20034;-52
2022/11/08 04:32:00;;;;;;;13.05;2.65;;;;;;;;;;4995276;28;20483;-52
2022/11/08 04:34:27;;;;;;;8.63;2.03;;;;;;;;;;5012991;28;20036;-53
2022/11/08 04:36:54;;;;;;;12.18;1.50;;;;;;;;;;5013129;28;20117;-53
2022/11/08 04:39:21;;;;;;;6.38;1.70;;;;;;;;;;5012624;28;20523;-55
2022/11/08 04:41:48;;;;;;;13.18;1.90;;;;;;;;;;5012907;28;20030;-52
2022/11/08 04:44:17;;;;;;;10.07;1.65;;;;;;;;;;5012827;28;20095;-51
2022/11/08 04:46:44;;;;;;;8.57;1.77;;;;;;;;;;5012802;28;20113;-52
2022/11/08 04:49:11;;;;;;;12.15;2.00;;;;;;;;;;5012785;28;20021;-53
2022/11/08 04:51:38;;;;;;;6.10;1.50;;;;;;;;;;5012508;28;20021;-54
2022/11/08 04:54:06;;;;;;;5.60;1.52;;;;;;;;;;5012225;28;20555;-51
2022/11/08 04:56:33;;;;;;;8.10;1.60;;;;;;;;;;5012483;28;20427;-53
2022/11/08 04:59:00;;;;;;;7.55;1.60;;;;;;;;;;5012457;28;20060;-51
2022/11/08 05:01:31;;;;;;;8.27;1.67;;;;;;;;;;5012416;28;20549;-55
2022/11/08 05:03:58;;;;;;;6.65;1.77;;;;;;;;;;5012475;28;20028;-52
2022/11/08 05:06:26;;;;;;;5.05;1.48;;;;;;;;;;5012546;28;20030;-55
2022/11/08 05:08:57;;;;;;;8.38;1.40;;;;;;;;;;5012445;28;20025;-52
2022/11/08 05:11:25;;;;;;;6.63;1.30;;;;;;;;;;5012373;28;20025;-53
2022/11/08 05:13:52;;;;;;;6.47;1.25;;;;;;;;;;5012367;28;20026;-52
2022/11/08 05:16:20;;;;;;;9.90;2.13;;;;;;;;;;5012341;28;20388;-51
2022/11/08 05:18:48;;;;;;;8.43;1.33;;;;;;;;;;5012200;28;20029;-53
2022/11/08 05:24:02;;;;;;;11.27;1.65;;;;;;;;;;5012428;28;20400;-52
2022/11/08 05:26:29;;;;;;;6.22;1.33;;;;;;;;;;5012210;28;20506;-55
2022/11/08 05:28:56;;;;;;;8.35;1.20;;;;;;;;;;5011970;28;20092;-56
2022/11/08 05:31:23;;;;;;;8.30;1.40;;;;;;;;;;5012153;28;20033;-50
2022/11/08 05:33:51;;;;;;;8.45;1.40;;;;;;;;;;5012244;28;20048;-51
2022/11/08 05:36:19;;;;;;;15.00;1.33;;;;;;;;;;5011695;28;20029;-54
2022/11/08 05:38:46;;;;;;;8.02;1.30;;;;;;;;;;5011902;28;20583;-51
2022/11/08 05:41:20;;;;;;;6.97;1.70;;;;;;;;;;5011923;28;20092;-53
2022/11/08 05:43:48;;;;;;;6.90;1.23;;;;;;;;;;5012137;28;20129;-53
2022/11/08 05:46:15;;;;;;;7.70;1.50;;;;;;;;;;5012014;28;20053;-51
2022/11/08 05:48:43;;;;;;;9.00;1.75;;;;;;;;;;5011930;28;20451;-52
2022/11/08 05:51:10;;;;;;;7.18;1.52;;;;;;;;;;5011859;28;20484;-53
2022/11/08 05:53:38;;;;;;;8.10;1.85;;;;;;;;;;5012357;28;20138;-52
2022/11/08 05:56:05;;;;;;;4.18;1.25;;;;;;;;;;5011972;28;20384;-51
2022/11/08 05:58:33;;;;;;;7.43;1.35;;;;;;;;;;5011747;28;20085;-52
2022/11/08 06:01:04;;;;;;;5.18;1.50;;;;;;;;;;5009427;28;20029;-53
2022/11/08 06:03:31;;;;;;;7.60;1.58;;;;;;;;;;5011878;28;20033;-55
2022/11/08 06:06:02;;;;;;;10.27;1.60;;;;;;;;;;5014975;28;20038;-52
2022/11/08 06:08:29;;;;;;;5.85;1.27;;;;;;;;;;5015765;28;20076;-54
2022/11/08 06:11:01;;;;;;;7.43;1.73;;;;;;;;;;5015838;28;20445;-55
2022/11/08 06:13:28;;;;;;;7.80;1.60;;;;;;;;;;5015779;28;20117;-53
2022/11/08 06:15:55;;;;;;;6.35;1.25;;;;;;;;;;5015622;28;20594;-53
2022/11/08 06:18:22;;;;;;;8.50;1.52;;;;;;;;;;5015226;28;20121;-54
2022/11/08 06:20:49;;;;;;;7.82;1.60;;;;;;;;;;5015213;28;20041;-52
2022/11/08 06:23:16;;;;;;;9.00;1.58;;;;;;;;;;5015278;28;20041;-54
2022/11/08 06:25:43;;;;;;;7.80;1.40;;;;;;;;;;5015399;28;20034;-52
2022/11/08 06:28:12;;;;;;;7.85;1.30;;;;;;;;;;5015435;28;20484;-53
2022/11/08 06:30:38;;;;;;;5.50;1.42;;;;;;;;;;5015067;28;20120;-50
2022/11/08 06:33:05;;;;;;;6.20;1.13;;;;;;;;;;5015382;28;20022;-50
2022/11/08 06:35:32;;;;;;;5.50;1.48;;;;;;;;;;5015429;28;20033;-52
2022/11/08 06:38:01;;;;;;;9.07;1.55;;;;;;;;;;5014834;28;20050;-55
2022/11/08 06:40:28;;;;;;;3.78;0.95;;;;;;;;;;5015201;28;20034;-55
2022/11/08 06:42:57;;;;;;;5.78;1.23;;;;;;;;;;5014912;28;20396;-52
2022/11/08 06:45:25;;;;;;;6.63;1.58;;;;;;;;;;5014918;28;20496;-54
2022/11/08 06:47:58;;;;;;;6.82;1.30;;;;;;;;;;5014771;28;20030;-53
2022/11/08 06:50:25;;;;;;;7.82;1.30;;;;;;;;;;5014973;28;20117;-52
2022/11/08 06:53:03;;;;;;;7.97;1.48;;;;;;;;;;5014850;28;20443;-51
2022/11/08 06:55:30;;;;;;;6.00;1.52;;;;;;;;;;5014828;28;20057;-52
2022/11/08 06:57:57;;;;;;;5.57;1.20;;;;;;;;;;5014717;28;20381;-55
2022/11/08 07:00:25;;;;;;;11.95;1.60;;;;;;;;;;5014619;28;20034;-51
2022/11/08 07:02:55;;;;;;;5.45;1.40;;;;;;;;;;5014842;28;20120;-55
2022/11/08 07:05:22;;;;;;;4.97;1.00;;;;;;;;;;5014618;28;20026;-51
2022/11/08 07:07:52;;;;;;;6.00;1.23;;;;;;;;;;5014581;28;20037;-52
2022/11/08 07:10:20;;;;;;;5.13;1.60;;;;;;;;;;5014474;28;20038;-51
2022/11/08 07:12:49;;;;;;;5.10;1.33;;;;;;;;;;5014588;28;20041;-52
2022/11/08 07:15:16;;;;;;;7.07;1.60;;;;;;;;;;5013994;28;20049;-52
2022/11/08 07:17:43;;;;;;;5.63;1.63;;;;;;;;;;5014289;28;20022;-52
2022/11/08 07:20:10;;;;;;;4.55;1.20;;;;;;;;;;5014443;28;20480;-54
2022/11/08 07:22:37;;;;;;;5.85;1.38;;;;;;;;;;5014232;28;20391;-54
2022/11/08 07:25:05;;;;;;;4.68;1.50;;;;;;;;;;5014426;28;20069;-53
2022/11/08 07:27:32;;;;;;;7.18;1.60;;;;;;;;;;5014173;28;20029;-53
2022/11/08 07:29:59;;;;;;;6.63;1.42;;;;;;;;;;5014222;28;20029;-50
2022/11/08 07:32:26;;;;;;;7.38;1.30;;;;;;;;;;4996449;28;20549;-55
2022/11/08 07:34:53;;;;;;;6.50;1.48;;;;;;;;;;5014206;28;20041;-51
2022/11/08 07:37:20;;;;;;;7.75;1.40;;;;;;;;;;5013779;28;20033;-51
2022/11/08 07:39:47;;;;;;;9.50;1.30;;;;;;;;;;5013937;28;20025;-53
2022/11/08 07:42:14;;;;;;;7.75;1.70;;;;;;;;;;5013963;28;20490;-54
2022/11/08 07:44:41;;;;;;;8.57;1.20;;;;;;;;;;5013918;28;20471;-53
2022/11/08 07:47:08;;;;;;;7.00;1.50;;;;;;;;;;5013959;28;20025;-53
2022/11/08 07:49:36;;;;;;;8.77;1.30;;;;;;;;;;5013660;28;20026;-51
2022/11/08 07:52:03;;;;;;;7.22;1.45;;;;;;;;;;5013604;28;20036;-50
2022/11/08 07:54:30;;;;;;;3.15;1.10;;;;;;;;;;5013693;28;20149;-51
2022/11/08 07:56:56;;;;;;;5.45;1.20;;;;;;;;;;5013724;28;20037;-55
2022/11/08 07:59:23;;;;;;;6.82;1.55;;;;;;;;;;5013596;28;20042;-50
2022/11/08 08:01:50;;;;;;;9.02;1.10;;;;;;;;;;5013212;28;20041;-55
2022/11/08 08:04:17;;;;;;;6.70;1.55;;;;;;;;;;5013252;28;20029;-53
2022/11/08 08:06:44;;;;;;;4.82;1.27;;;;;;;;;;5013576;28;20058;-52
2022/11/08 08:09:11;;;;;;;8.90;1.20;;;;;;;;;;4995657;28;20117;-51
2022/11/08 08:11:38;;;;;;;8.60;1.10;;;;;;;;;;5013379;28;20395;-55
2022/11/08 08:14:05;;;;;;;3.55;0.90;;;;;;;;;;5013341;28;20113;-54
2022/11/08 08:16:35;;;;;;;5.00;1.55;;;;;;;;;;5013326;28;20084;-53
2022/11/08 08:19:02;;;;;;;3.25;1.10;;;;;;;;;;5013009;28;20072;-51
2022/11/08 08:21:29;;;;;;;11.43;1.30;;;;;;;;;;5013239;28;20032;-50
2022/11/08 08:23:56;;;;;;;4.10;1.20;;;;;;;;;;5012954;28;20045;-51
2022/11/08 08:26:23;;;;;;;3.78;0.90;;;;;;;;;;5013123;28;20041;-53
2022/11/08 08:28:50;;;;;;;7.80;1.30;;;;;;;;;;5012497;28;20025;-52
2022/11/08 08:31:17;;;;;;;4.05;1.38;;;;;;;;;;5012954;28;20028;-53
2022/11/08 08:33:44;;;;;;;4.50;1.17;;;;;;;;;;5013040;28;20036;-50
2022/11/08 08:36:11;;;;;;;8.02;1.17;;;;;;;;;;5012915;28;20030;-53
2022/11/08 08:38:38;;;;;;;3.97;1.10;;;;;;;;;;4994938;28;20049;-54
2022/11/08 08:41:05;;;;;;;5.85;1.27;;;;;;;;;;5013016;28;20392;-50
2022/11/08 08:43:32;;;;;;;5.57;1.27;;;;;;;;;;5012878;28;20435;-50
2022/11/08 08:46:00;;;;;;;7.43;1.10;;;;;;;;;;4994947;28;20030;-51
2022/11/08 08:48:27;;;;;;;9.18;1.27;;;;;;;;;;5012824;28;20077;-53
2022/11/08 08:50:54;;;;;;;4.22;1.13;;;;;;;;;;5012724;28;20034;-53
2022/11/08 08:53:21;;;;;;;3.85;1.15;;;;;;;;;;5012541;28;20032;-53
2022/11/08 08:55:51;;;;;;;4.85;1.17;;;;;;;;;;5012633;28;20075;-53
2022/11/08 08:58:18;;;;;;;3.22;0.90;;;;;;;;;;5012519;28;20131;-54
2022/11/08 09:00:45;;;;;;;4.47;1.25;;;;;;;;;;4998868;28;20515;-52
2022/11/08 09:03:12;;;;;;;7.90;1.30;;;;;;;;;;5012601;28;20088;-53
2022/11/08 09:05:42;;;;;;;2.90;1.00;;;;;;;;;;5012415;28;20022;-55
2022/11/08 09:08:13;;;;;;;8.13;1.45;;;;;;;;;;5012309;28;20040;-53
2022/11/08 09:10:40;;;;;;;6.57;1.30;;;;;;;;;;5012223;28;20025;-52
2022/11/08 09:13:07;;;;;;;4.40;1.27;;;;;;;;;;5012400;28;20411;-55
2022/11/08 09:15:34;;;;;;;6.95;1.30;;;;;;;;;;5012255;28;20072;-53
2022/11/08 09:18:01;;;;;;;5.90;1.23;;;;;;;;;;5012240;28;20061;-53
2022/11/08 09:20:28;;;;;;;12.43;1.67;;;;;;;;;;5011849;28;20046;-55
2022/11/08 09:22:56;;;;;;;6.88;1.50;;;;;;;;;;5012380;28;20021;-55
2022/11/08 09:25:23;;;;;;;8.25;1.38;;;;;;;;;;5012098;28;20456;-54
2022/11/08 09:27:49;;;;;;;5.43;1.45;;;;;;;;;;5012164;28;20022;-54
2022/11/08 09:30:16;;;;;;;7.78;1.17;;;;;;;;;;5012075;28;20026;-53
2022/11/08 09:32:43;;;;;;;6.18;1.27;;;;;;;;;;5012086;28;20032;-51
2022/11/08 09:35:10;;;;;;;4.10;1.08;;;;;;;;;;5012081;28;20522;-57
2022/11/08 09:37:37;;;;;;;8.88;1.55;;;;;;;;;;5011370;28;20030;-52
2022/11/08 09:40:04;;;;;;;6.50;1.17;;;;;;;;;;5011543;28;20092;-52
2022/11/08 09:42:31;;;;;;;15.23;1.73;;;;;;;;;;5011398;28;20125;-53
2022/11/08 09:44:58;;;;;;;8.00;1.35;;;;;;;;;;5010475;28;20105;-57
2022/11/08 09:47:31;;;;;;;14.45;1.98;;;;;;;;;;5011841;28;20091;-57
2022/11/08 09:50:14;;;;;;;17.77;2.03;;;;;;;;;;5011748;28;20042;-57
2022/11/08 09:52:45;;;;;;;24.60;2.67;;;;;;;;;;5011578;28;20041;-57
2022/11/08 09:55:24;;;;;;;22.65;2.65;;;;;;;;;;5011864;28;20025;-54
2022/11/08 09:58:09;;;;;;;24.45;3.35;;;;;;;;;;5011483;28;20057;-56
2022/11/08 10:00:39;;;;;;;19.70;3.22;;;;;;;;;;5011191;28;20025;-54
2022/11/08 10:03:06;;;;;;;25.45;2.97;;;;;;;;;;5005610;28;20025;-59
2022/11/08 10:05:37;;;;;;;25.25;3.58;;;;;;;;;;5011730;28;20037;-59
2022/11/08 10:08:10;;;;;;;32.50;5.50;;;;;;;;;;5010776;28;20056;-51
2022/11/08 10:10:49;;;;;;;36.83;5.93;;;;;;;;;;5010965;28;20431;-60
2022/11/08 10:13:27;;;;;;;37.75;5.72;;;;;;;;;;5011379;28;20066;-59
2022/11/08 10:15:54;;;;;;;26.42;5.70;;;;;;;;;;5004078;28;20443;-59
2022/11/08 10:18:21;;;;;;;39.42;5.22;;;;;;;;;;5010570;28;20038;-58
2022/11/08 10:20:48;;;;;;;27.98;4.38;;;;;;;;;;5011429;28;20476;-58
2022/11/08 10:23:23;;;;;;;33.60;5.65;;;;;;;;;;5010783;28;20076;-58
2022/11/08 10:26:16;;;;;;;24.63;5.15;;;;;;;;;;5011086;28;20030;-60
2022/11/08 10:28:55;;;;;;;34.78;5.15;;;;;;;;;;5005646;28;20037;-56
2022/11/08 10:31:22;;;;;;;33.15;4.78;;;;;;;;;;5010590;28;20034;-58
2022/11/08 10:33:56;;;;;;;41.97;5.53;;;;;;;;;;5011568;28;20065;-59
2022/11/08 10:36:41;;;;;;;32.60;4.35;;;;;;;;;;4998298;28;20084;-60
2022/11/08 10:39:08;;;;;;;36.75;5.15;;;;;;;;;;5010865;28;20455;-59
2022/11/08 10:41:40;;;;;;;32.03;4.45;;;;;;;;;;5011130;28;20088;-59
2022/11/08 10:44:06;;;;;;;;;;;;;;;;;;5011813;28;20065;-55
2022/11/08 10:46:38;;;;;;;50.45;5.45;;;;;;;;;;5011273;28;19909;-55
2022/11/08 10:49:12;;;;;;;29.17;4.47;;;;;;;;;;5011147;28;20037;-60
2022/11/08 10:51:39;;;;;;;41.50;5.28;;;;;;;;;;5013850;28;20980;-54
2022/11/08 10:54:07;;;;;;;38.03;4.85;;;;;;;;;;5014937;28;20038;-58
2022/11/08 10:56:53;;;;;;;40.35;4.97;;;;;;;;;;5014653;28;20068;-56
2022/11/08 10:59:30;;;;;;;29.05;4.78;;;;;;;;;;5003430;28;20072;-59
2022/11/08 11:01:57;;;;;;;26.80;4.65;;;;;;;;;;5014590;28;20030;-59
2022/11/08 11:04:29;;;;;;;39.58;5.03;;;;;;;;;;5014507;28;20047;-57
2022/11/08 11:07:00;;;;;;;39.90;5.50;;;;;;;;;;5014134;28;20061;-59
2022/11/08 11:09:28;;;;;;;51.15;5.07;;;;;;;;;;5013875;28;20092;-57
2022/11/08 11:11:59;;;;;;;36.58;4.75;;;;;;;;;;5014523;28;20121;-58
2022/11/08 11:14:26;;;;;;;227.13;19.63;;;;;;;;;;5014531;28;20038;-62
2022/11/08 11:17:12;;;;;;;63.45;6.47;;;;;;;;;;5014485;28;20041;-61
2022/11/08 11:19:43;;;;;;;62.35;7.20;;;;;;;;;;5014162;28;20115;-61
2022/11/08 11:22:11;;;;;;;148.65;9.48;;;;;;;;;;5014398;28;20030;-60
2022/11/08 11:24:49;;;;;;;147.43;9.95;;;;;;;;;;5014263;28;20045;-53
2022/11/08 11:27:33;;;;;;;83.43;9.23;;;;;;;;;;5014272;28;20056;-61
2022/11/08 11:30:18;;;;;;;70.88;7.22;;;;;;;;;;5014189;28;20156;-53
2022/11/08 11:33:05;;;;;;;65.80;7.05;;;;;;;;;;5012590;28;20036;-49
2022/11/08 11:35:38;;;;;;;159.02;12.52;;;;;;;;;;5004936;28;20034;-52
2022/11/08 11:38:08;;;;;;;161.50;13.32;;;;;;;;;;5013775;28;20077;-49
2022/11/08 11:40:44;;;;;;;137.27;13.20;;;;;;;;;;5013983;28;20493;-52
2022/11/08 11:43:16;;;;;;;135.10;12.13;;;;;;;;;;5013809;28;20030;-49
2022/11/08 11:45:52;;;;;;;84.10;9.57;;;;;;;;;;5013924;28;20105;-46
2022/11/08 11:48:27;;;;;;;78.32;8.10;;;;;;;;;;5013846;28;20029;-46
2022/11/08 11:50:55;;;;;;;341.23;20.30;;;;;;;;;;5013870;28;20032;-53
2022/11/08 11:53:26;;;;;;;125.10;9.52;;;;;;;;;;5013602;28;20049;-53
2022/11/08 11:55:59;;;;;;;106.13;9.20;;;;;;;;;;5013728;28;20496;-51
2022/11/08 11:58:26;;;;;;;83.38;8.10;;;;;;;;;;5013491;28;20038;-51
2022/11/08 12:00:59;;;;;;;105.07;8.80;;;;;;;;;;5013584;28;20026;-49
2022/11/08 12:03:29;;;;;;;94.25;8.85;;;;;;;;;;5012389;28;20507;-52
2022/11/08 12:05:58;;;;;;;99.32;8.85;;;;;;;;;;5013358;28;20034;-50
2022/11/08 12:08:25;;;;;;;146.32;11.55;;;;;;;;;;5013330;28;20388;-50
2022/11/08 12:10:52;;;;;;;199.00;15.05;;;;;;;;;;5013292;28;20061;-53
2022/11/08 12:13:25;;;;;;;173.65;16.45;;;;;;;;;;5013323;28;20160;-48
2022/11/08 12:15:58;;;;;;;188.05;15.93;;;;;;;;;;5013279;28;20022;-50
2022/11/08 12:18:44;;;;;;;203.77;15.48;;;;;;;;;;5013339;28;20138;-52
2022/11/08 12:21:13;;;;;;;171.10;13.43;;;;;;;;;;5013009;28;20033;-51
2022/11/08 12:23:53;;;;;;;146.65;13.10;;;;;;;;;;5013218;28;20492;-53
2022/11/08 12:26:35;;;;;;;133.68;11.60;;;;;;;;;;4982511;28;20026;-51
2022/11/08 12:29:02;;;;;;;;;;;;;;;;;;5013446;28;20123;-51
2022/11/08 12:31:54;;;;;;;118.70;11.82;;;;;;;;;;5012985;28;19952;-49
2022/11/08 12:34:23;;;;;;;108.32;11.95;;;;;;;;;;5010378;28;20044;-56
2022/11/08 12:36:53;;;;;;;112.15;11.60;;;;;;;;;;5012983;28;20042;-50
2022/11/08 12:39:21;;;;;;;122.47;11.45;;;;;;;;;;4994810;28;20056;-50
2022/11/08 12:41:54;;;;;;;105.18;10.52;;;;;;;;;;5012852;28;20042;-49
2022/11/08 12:44:24;;;;;;;104.18;10.02;;;;;;;;;;5012784;28;20037;-50
2022/11/08 12:46:53;;;;;;;100.18;11.05;;;;;;;;;;5012886;28;20025;-51
2022/11/08 12:49:26;;;;;;;113.75;10.65;;;;;;;;;;5012649;28;20451;-49
2022/11/08 12:52:05;;;;;;;137.00;12.23;;;;;;;;;;4999988;28;20030;-52
2022/11/08 12:54:38;;;;;;;111.60;11.05;;;;;;;;;;5012642;28;20034;-51
2022/11/08 12:57:15;;;;;;;101.32;10.80;;;;;;;;;;5012652;28;20057;-52
2022/11/08 12:59:52;;;;;;;114.65;11.65;;;;;;;;;;5012392;28;20048;-50
2022/11/08 13:02:21;;;;;;;133.02;10.40;;;;;;;;;;5011677;28;20079;-51
2022/11/08 13:05:02;;;;;;;104.75;10.57;;;;;;;;;;5012457;28;20037;-50
2022/11/08 13:07:33;;;;;;;131.98;12.57;;;;;;;;;;5012264;28;20055;-50
2022/11/08 13:10:21;;;;;;;128.65;12.68;;;;;;;;;;5012047;28;20025;-53
2022/11/08 13:13:00;;;;;;;145.30;13.60;;;;;;;;;;4982377;28;20038;-53
2022/11/08 13:15:28;;;;;;;161.07;14.32;;;;;;;;;;5012223;28;20044;-54
2022/11/08 13:18:08;;;;;;;160.77;13.35;;;;;;;;;;5012059;28;20068;-53
2022/11/08 13:20:43;;;;;;;157.70;14.02;;;;;;;;;;5011777;28;20057;-53
2022/11/08 13:23:28;;;;;;;176.70;14.63;;;;;;;;;;5012016;28;20551;-50
2022/11/08 13:26:10;;;;;;;128.73;11.48;;;;;;;;;;5012012;28;20037;-51
2022/11/08 13:28:39;;;;;;;131.52;13.80;;;;;;;;;;5011828;28;20030;-53
2022/11/08 13:31:12;;;;;;;132.20;13.07;;;;;;;;;;5011895;28;20038;-50
2022/11/08 13:33:42;;;;;;;140.65;12.90;;;;;;;;;;5012016;28;20034;-49
2022/11/08 13:36:18;;;;;;;117.57;11.80;;;;;;;;;;5011880;28;20030;-52
2022/11/08 13:38:51;;;;;;;121.20;12.45;;;;;;;;;;5011462;28;20058;-49
2022/11/08 13:41:23;;;;;;;106.55;10.65;;;;;;;;;;5011715;28;20057;-50
2022/11/08 13:43:50;;;;;;;106.43;10.93;;;;;;;;;;5011936;28;20369;-49
2022/11/08 13:46:29;;;;;;;92.10;10.07;;;;;;;;;;5011704;28;20117;-53
2022/11/08 13:49:02;;;;;;;89.30;10.10;;;;;;;;;;5011983;28;20076;-51
2022/11/08 13:51:28;;;;;;;;;;;;;;;;;;5011903;28;20034;-49
2022/11/08 13:54:00;;;;;;;107.47;10.23;;;;;;;;;;5011833;28;19913;-48
2022/11/08 13:56:26;;;;;;;103.72;11.13;;;;;;;;;;5011750;28;20531;-52
2022/11/08 13:58:53;;;;;;;83.30;9.98;;;;;;;;;;5011665;28;20065;-50
2022/11/08 14:01:23;;;;;;;97.32;11.02;;;;;;;;;;5011882;28;20045;-49
2022/11/08 14:03:50;;;;;;;101.50;11.10;;;;;;;;;;5011528;28;20069;-50
2022/11/08 14:06:29;;;;;;;98.05;10.85;;;;;;;;;;5011740;28;20472;-49
2022/11/08 14:08:59;;;;;;;83.53;10.90;;;;;;;;;;5011621;28;20030;-49
2022/11/08 14:11:45;;;;;;;104.53;11.32;;;;;;;;;;5011393;28;20041;-51
2022/11/08 14:14:14;;;;;;;86.60;9.98;;;;;;;;;;5010389;28;20053;-54
2022/11/08 14:16:54;;;;;;;81.85;10.27;;;;;;;;;;5011528;28;20026;-50
2022/11/08 14:19:23;;;;;;;79.15;10.30;;;;;;;;;;5011324;28;20064;-53
2022/11/08 14:21:51;;;;;;;91.30;10.63;;;;;;;;;;5011600;28;20022;-50
2022/11/08 14:24:21;;;;;;;87.38;8.65;;;;;;;;;;5011326;28;20480;-49
2022/11/08 14:26:48;;;;;;;87.15;10.35;;;;;;;;;;5014329;28;20496;-52
2022/11/08 14:29:19;;;;;;;69.20;9.98;;;;;;;;;;5015165;28;20026;-52
2022/11/08 14:31:46;;;;;;;101.93;10.70;;;;;;;;;;5015285;28;20026;-49
2022/11/08 14:34:30;;;;;;;70.57;10.05;;;;;;;;;;5015101;28;20026;-50
2022/11/08 14:36:57;;;;;;;74.18;9.23;;;;;;;;;;5015180;28;20483;-49
2022/11/08 14:39:29;;;;;;;73.47;9.40;;;;;;;;;;5014430;28;20432;-50
2022/11/08 14:41:58;;;;;;;71.50;8.30;;;;;;;;;;5015078;28;20135;-49
2022/11/08 14:44:26;;;;;;;71.03;9.65;;;;;;;;;;5014968;28;20380;-54
2022/11/08 14:46:53;;;;;;;72.68;9.32;;;;;;;;;;5014777;28;20056;-51
2022/11/08 14:49:22;;;;;;;83.55;11.55;;;;;;;;;;5014714;28;20041;-52
2022/11/08 14:52:09;;;;;;;81.03;11.48;;;;;;;;;;5001355;28;20025;-51
2022/11/08 14:54:40;;;;;;;93.57;11.27;;;;;;;;;;5004684;28;20046;-49
2022/11/08 14:57:26;;;;;;;85.72;12.00;;;;;;;;;;5014595;28;20072;-49
2022/11/08 14:59:53;;;;;;;112.43;11.80;;;;;;;;;;5014549;28;20037;-51
2022/11/08 15:02:20;;;;;;;95.60;12.40;;;;;;;;;;5014583;28;20377;-51
2022/11/08 15:04:47;;;;;;;80.65;11.27;;;;;;;;;;5014610;28;20034;-50